sensor_id;sensor_type;location;lat;lon;timestamp;temperature;humidity
68109;SHT30;54893;49.864;19.084;2023-07-13T00:04:05;20.51;86.96
68109;SHT30;54893;49.864;19.084;2023-07-13T00:09:06;20.47;86.31
68109;SHT30;54893;49.864;19.084;2023-07-13T00:14:07;20.29;87.02
68109;SHT30;54893;49.864;19.084;2023-07-13T00:19:08;20.10;87.91
68109;SHT30;54893;49.864;19.084;2023-07-13T00:24:11;19.91;87.55
68109;SHT30;54893;49.864;19.084;2023-07-13T00:29:15;19.80;87.91
68109;SHT30;54893;49.864;19.084;2023-07-13T00:34:16;19.66;89.50
68109;SHT30;54893;49.864;19.084;2023-07-13T00:39:16;19.43;89.61
68109;SHT30;54893;49.864;19.084;2023-07-13T00:44:19;19.28;89.92
68109;SHT30;54893;49.864;19.084;2023-07-13T00:49:22;19.17;90.62
68109;SHT30;54893;49.864;19.084;2023-07-13T00:54:43;19.12;90.14
68109;SHT30;54893;49.864;19.084;2023-07-13T00:59:48;19.12;89.09
68109;SHT30;54893;49.864;19.084;2023-07-13T01:04:49;19.10;88.90
68109;SHT30;54893;49.864;19.084;2023-07-13T01:09:50;19.03;89.09
68109;SHT30;54893;49.864;19.084;2023-07-13T01:14:57;18.96;88.15
68109;SHT30;54893;49.864;19.084;2023-07-13T01:19:57;18.93;88.11
68109;SHT30;54893;49.864;19.084;2023-07-13T01:24:58;18.93;86.68
68109;SHT30;54893;49.864;19.084;2023-07-13T01:29:58;18.96;87.43
68109;SHT30;54893;49.864;19.084;2023-07-13T01:35:04;18.91;87.05
68109;SHT30;54893;49.864;19.084;2023-07-13T01:40:05;18.76;88.15
68109;SHT30;54893;49.864;19.084;2023-07-13T01:45:06;18.68;87.59
68109;SHT30;54893;49.864;19.084;2023-07-13T01:50:06;18.66;88.21
68109;SHT30;54893;49.864;19.084;2023-07-13T01:55:07;18.56;89.84
68109;SHT30;54893;49.864;19.084;2023-07-13T02:00:09;18.53;89.22
68109;SHT30;54893;49.864;19.084;2023-07-13T02:05:11;18.55;89.59
68109;SHT30;54893;49.864;19.084;2023-07-13T02:10:12;18.82;87.55
68109;SHT30;54893;49.864;19.084;2023-07-13T02:15:12;18.79;88.33
68109;SHT30;54893;49.864;19.084;2023-07-13T02:20:13;18.95;87.68
68109;SHT30;54893;49.864;19.084;2023-07-13T02:25:13;18.98;89.31
68109;SHT30;54893;49.864;19.084;2023-07-13T02:30:14;18.98;88.08
68109;SHT30;54893;49.864;19.084;2023-07-13T02:35:14;18.79;90.21
68109;SHT30;54893;49.864;19.084;2023-07-13T02:40:15;18.58;91.07
68109;SHT30;54893;49.864;19.084;2023-07-13T02:45:15;18.45;93.42
68109;SHT30;54893;49.864;19.084;2023-07-13T02:50:16;18.29;93.03
68109;SHT30;54893;49.864;19.084;2023-07-13T02:55:16;18.08;93.26
68109;SHT30;54893;49.864;19.084;2023-07-13T03:00:17;18.09;93.98
68109;SHT30;54893;49.864;19.084;2023-07-13T03:05:18;18.12;93.40
68109;SHT30;54893;49.864;19.084;2023-07-13T03:10:18;18.14;92.93
68109;SHT30;54893;49.864;19.084;2023-07-13T03:15:18;18.24;92.71
68109;SHT30;54893;49.864;19.084;2023-07-13T03:20:19;18.38;92.48
68109;SHT30;54893;49.864;19.084;2023-07-13T03:25:19;18.44;93.04
68109;SHT30;54893;49.864;19.084;2023-07-13T03:30:19;18.45;93.31
68109;SHT30;54893;49.864;19.084;2023-07-13T03:35:20;18.56;89.77
68109;SHT30;54893;49.864;19.084;2023-07-13T03:40:20;18.68;91.29
68109;SHT30;54893;49.864;19.084;2023-07-13T03:45:21;18.83;90.80
68109;SHT30;54893;49.864;19.084;2023-07-13T03:50:21;18.93;89.90
68109;SHT30;54893;49.864;19.084;2023-07-13T03:55:22;19.16;89.48
68109;SHT30;54893;49.864;19.084;2023-07-13T04:00:22;19.37;88.96
68109;SHT30;54893;49.864;19.084;2023-07-13T04:05:23;19.51;88.74
68109;SHT30;54893;49.864;19.084;2023-07-13T04:10:23;19.67;88.00
68109;SHT30;54893;49.864;19.084;2023-07-13T04:15:23;19.81;88.62
68109;SHT30;54893;49.864;19.084;2023-07-13T04:20:25;19.95;87.28
68109;SHT30;54893;49.864;19.084;2023-07-13T04:25:25;20.17;86.58
68109;SHT30;54893;49.864;19.084;2023-07-13T04:30:25;20.34;87.56
68109;SHT30;54893;49.864;19.084;2023-07-13T04:35:26;20.51;86.17
68109;SHT30;54893;49.864;19.084;2023-07-13T04:40:27;20.61;86.27
68109;SHT30;54893;49.864;19.084;2023-07-13T04:45:28;20.59;88.82
68109;SHT30;54893;49.864;19.084;2023-07-13T04:50:28;20.55;89.13
68109;SHT30;54893;49.864;19.084;2023-07-13T04:55:29;20.31;89.53
68109;SHT30;54893;49.864;19.084;2023-07-13T05:00:31;20.49;88.85
68109;SHT30;54893;49.864;19.084;2023-07-13T05:05:31;20.42;89.39
68109;SHT30;54893;49.864;19.084;2023-07-13T05:10:32;20.52;89.37
68109;SHT30;54893;49.864;19.084;2023-07-13T05:15:32;20.64;88.42
68109;SHT30;54893;49.864;19.084;2023-07-13T05:20:33;20.72;89.67
68109;SHT30;54893;49.864;19.084;2023-07-13T05:25:33;20.95;89.18
68109;SHT30;54893;49.864;19.084;2023-07-13T05:30:34;21.22;87.93
68109;SHT30;54893;49.864;19.084;2023-07-13T05:35:34;22.01;86.71
68109;SHT30;54893;49.864;19.084;2023-07-13T05:40:34;22.47;85.36
68109;SHT30;54893;49.864;19.084;2023-07-13T05:45:35;22.58;84.98
68109;SHT30;54893;49.864;19.084;2023-07-13T05:50:35;23.23;83.94
68109;SHT30;54893;49.864;19.084;2023-07-13T05:55:36;23.13;83.43
68109;SHT30;54893;49.864;19.084;2023-07-13T06:00:36;23.42;83.42
68109;SHT30;54893;49.864;19.084;2023-07-13T06:05:38;23.39;81.11
68109;SHT30;54893;49.864;19.084;2023-07-13T06:10:38;23.23;82.72
68109;SHT30;54893;49.864;19.084;2023-07-13T06:15:39;23.15;83.04
68109;SHT30;54893;49.864;19.084;2023-07-13T06:20:39;23.30;82.64
68109;SHT30;54893;49.864;19.084;2023-07-13T06:25:40;23.81;80.98
68109;SHT30;54893;49.864;19.084;2023-07-13T06:30:40;24.22;80.95
68109;SHT30;54893;49.864;19.084;2023-07-13T06:35:41;24.38;79.88
68109;SHT30;54893;49.864;19.084;2023-07-13T06:40:41;24.37;80.40
68109;SHT30;54893;49.864;19.084;2023-07-13T06:45:45;24.40;80.02
68109;SHT30;54893;49.864;19.084;2023-07-13T06:50:50;23.62;79.59
68109;SHT30;54893;49.864;19.084;2023-07-13T06:55:51;23.87;80.50
68109;SHT30;54893;49.864;19.084;2023-07-13T07:00:52;24.13;78.94
68109;SHT30;54893;49.864;19.084;2023-07-13T07:05:52;24.24;78.69
68109;SHT30;54893;49.864;19.084;2023-07-13T07:10:53;24.34;79.17
68109;SHT30;54893;49.864;19.084;2023-07-13T07:15:54;24.24;79.54
68109;SHT30;54893;49.864;19.084;2023-07-13T07:20:54;23.81;80.83
68109;SHT30;54893;49.864;19.084;2023-07-13T07:25:55;23.67;81.23
68109;SHT30;54893;49.864;19.084;2023-07-13T07:30:57;23.59;81.60
68109;SHT30;54893;49.864;19.084;2023-07-13T07:35:58;23.39;81.91
68109;SHT30;54893;49.864;19.084;2023-07-13T07:41:02;23.57;81.81
68109;SHT30;54893;49.864;19.084;2023-07-13T07:46:03;23.54;82.29
68109;SHT30;54893;49.864;19.084;2023-07-13T07:51:03;23.54;82.42
68109;SHT30;54893;49.864;19.084;2023-07-13T07:56:04;23.88;80.64
68109;SHT30;54893;49.864;19.084;2023-07-13T08:01:05;24.13;80.65
68109;SHT30;54893;49.864;19.084;2023-07-13T08:06:06;24.16;80.81
68109;SHT30;54893;49.864;19.084;2023-07-13T08:11:07;24.30;80.04
68109;SHT30;54893;49.864;19.084;2023-07-13T08:16:08;24.22;79.82
68109;SHT30;54893;49.864;19.084;2023-07-13T08:21:09;24.03;80.39
68109;SHT30;54893;49.864;19.084;2023-07-13T08:26:09;23.94;80.86
68109;SHT30;54893;49.864;19.084;2023-07-13T08:31:10;23.69;81.23
68109;SHT30;54893;49.864;19.084;2023-07-13T08:36:10;23.46;81.89
68109;SHT30;54893;49.864;19.084;2023-07-13T08:41:17;23.33;82.25
68109;SHT30;54893;49.864;19.084;2023-07-13T08:46:23;23.18;82.64
68109;SHT30;54893;49.864;19.084;2023-07-13T08:56:39;22.56;85.18
68109;SHT30;54893;49.864;19.084;2023-07-13T09:12:19;20.99;90.69
68109;SHT30;54893;49.864;19.084;2023-07-13T09:17:50;21.14;90.10
68109;SHT30;54893;49.864;19.084;2023-07-13T09:22:52;21.22;90.39
68109;SHT30;54893;49.864;19.084;2023-07-13T09:27:57;21.19;89.58
68109;SHT30;54893;49.864;19.084;2023-07-13T09:32:58;21.06;90.69
68109;SHT30;54893;49.864;19.084;2023-07-13T09:38:04;20.83;91.88
68109;SHT30;54893;49.864;19.084;2023-07-13T09:43:13;20.71;93.48
68109;SHT30;54893;49.864;19.084;2023-07-13T09:48:15;20.36;94.31
68109;SHT30;54893;49.864;19.084;2023-07-13T09:53:18;20.00;94.24
68109;SHT30;54893;49.864;19.084;2023-07-13T09:58:25;19.77;94.95
68109;SHT30;54893;49.864;19.084;2023-07-13T10:03:29;19.66;94.64
68109;SHT30;54893;49.864;19.084;2023-07-13T10:08:35;19.49;95.62
68109;SHT30;54893;49.864;19.084;2023-07-13T10:13:37;19.30;95.62
68109;SHT30;54893;49.864;19.084;2023-07-13T10:18:45;19.46;96.52
68109;SHT30;54893;49.864;19.084;2023-07-13T10:23:50;18.65;98.79
68109;SHT30;54893;49.864;19.084;2023-07-13T10:28:54;18.72;97.78
68109;SHT30;54893;49.864;19.084;2023-07-13T10:33:56;17.77;98.32
68109;SHT30;54893;49.864;19.084;2023-07-13T10:38:59;17.64;98.04
68109;SHT30;54893;49.864;19.084;2023-07-13T10:44:01;17.44;98.41
68109;SHT30;54893;49.864;19.084;2023-07-13T10:49:05;17.16;99.07
68109;SHT30;54893;49.864;19.084;2023-07-13T10:54:15;16.97;99.31
68109;SHT30;54893;49.864;19.084;2023-07-13T10:59:26;16.87;99.01
68109;SHT30;54893;49.864;19.084;2023-07-13T11:04:39;16.77;99.15
68109;SHT30;54893;49.864;19.084;2023-07-13T11:09:41;16.72;99.38
68109;SHT30;54893;49.864;19.084;2023-07-13T11:15:02;16.72;99.44
68109;SHT30;54893;49.864;19.084;2023-07-13T11:20:21;16.80;99.90
68109;SHT30;54893;49.864;19.084;2023-07-13T11:30:31;17.07;99.56
68109;SHT30;54893;49.864;19.084;2023-07-13T11:35:35;17.12;99.45
68109;SHT30;54893;49.864;19.084;2023-07-13T11:40:36;17.19;99.51
68109;SHT30;54893;49.864;19.084;2023-07-13T11:45:36;17.03;99.36
68109;SHT30;54893;49.864;19.084;2023-07-13T11:50:37;17.16;99.38
68109;SHT30;54893;49.864;19.084;2023-07-13T11:55:38;17.15;99.24
68109;SHT30;54893;49.864;19.084;2023-07-13T12:00:38;17.43;99.69
68109;SHT30;54893;49.864;19.084;2023-07-13T12:05:59;17.75;99.15
68109;SHT30;54893;49.864;19.084;2023-07-13T12:11:06;18.27;98.07
68109;SHT30;54893;49.864;19.084;2023-07-13T12:16:15;19.28;97.53
68109;SHT30;54893;49.864;19.084;2023-07-13T12:21:18;19.53;96.36
68109;SHT30;54893;49.864;19.084;2023-07-13T12:26:19;19.30;96.62
68109;SHT30;54893;49.864;19.084;2023-07-13T12:31:33;19.10;97.07
68109;SHT30;54893;49.864;19.084;2023-07-13T12:36:37;18.95;97.37
68109;SHT30;54893;49.864;19.084;2023-07-13T12:41:38;18.73;97.17
68109;SHT30;54893;49.864;19.084;2023-07-13T12:46:39;18.51;96.95
68109;SHT30;54893;49.864;19.084;2023-07-13T12:51:39;19.02;96.06
68109;SHT30;54893;49.864;19.084;2023-07-13T12:56:41;19.57;94.59
68109;SHT30;54893;49.864;19.084;2023-07-13T13:01:41;20.31;92.93
68109;SHT30;54893;49.864;19.084;2023-07-13T13:06:42;19.74;93.47
68109;SHT30;54893;49.864;19.084;2023-07-13T13:11:43;19.75;93.44
68109;SHT30;54893;49.864;19.084;2023-07-13T13:16:50;19.98;92.47
68109;SHT30;54893;49.864;19.084;2023-07-13T13:21:52;19.94;92.68
68109;SHT30;54893;49.864;19.084;2023-07-13T13:26:53;20.10;91.77
68109;SHT30;54893;49.864;19.084;2023-07-13T13:31:55;20.55;90.57
68109;SHT30;54893;49.864;19.084;2023-07-13T13:36:56;21.73;88.18
68109;SHT30;54893;49.864;19.084;2023-07-13T13:41:56;21.02;88.22
68109;SHT30;54893;49.864;19.084;2023-07-13T13:46:56;20.55;89.64
68109;SHT30;54893;49.864;19.084;2023-07-13T13:51:58;20.11;90.72
68109;SHT30;54893;49.864;19.084;2023-07-13T13:56:59;19.93;90.68
68109;SHT30;54893;49.864;19.084;2023-07-13T14:01:59;19.73;91.09
68109;SHT30;54893;49.864;19.084;2023-07-13T14:07:00;19.54;91.30
68109;SHT30;54893;49.864;19.084;2023-07-13T14:12:01;19.70;91.28
68109;SHT30;54893;49.864;19.084;2023-07-13T14:17:01;19.85;90.87
68109;SHT30;54893;49.864;19.084;2023-07-13T14:22:02;19.88;90.98
68109;SHT30;54893;49.864;19.084;2023-07-13T14:27:03;19.94;90.44
68109;SHT30;54893;49.864;19.084;2023-07-13T14:32:04;19.95;90.05
68109;SHT30;54893;49.864;19.084;2023-07-13T14:37:05;20.48;89.57
68109;SHT30;54893;49.864;19.084;2023-07-13T14:42:11;20.89;88.24
68109;SHT30;54893;49.864;19.084;2023-07-13T14:47:12;20.83;88.79
68109;SHT30;54893;49.864;19.084;2023-07-13T14:52:18;20.85;87.97
68109;SHT30;54893;49.864;19.084;2023-07-13T14:57:19;20.67;87.76
68109;SHT30;54893;49.864;19.084;2023-07-13T15:02:29;20.71;86.91
68109;SHT30;54893;49.864;19.084;2023-07-13T15:07:29;20.61;87.90
68109;SHT30;54893;49.864;19.084;2023-07-13T15:12:30;21.23;85.57
68109;SHT30;54893;49.864;19.084;2023-07-13T15:17:37;21.46;84.20
68109;SHT30;54893;49.864;19.084;2023-07-13T15:22:37;21.77;82.83
68109;SHT30;54893;49.864;19.084;2023-07-13T15:27:38;21.27;82.06
68109;SHT30;54893;49.864;19.084;2023-07-13T15:32:38;21.13;82.98
68109;SHT30;54893;49.864;19.084;2023-07-13T15:37:39;21.57;82.16
68109;SHT30;54893;49.864;19.084;2023-07-13T15:42:43;23.49;77.25
68109;SHT30;54893;49.864;19.084;2023-07-13T15:47:45;22.98;79.02
68109;SHT30;54893;49.864;19.084;2023-07-13T15:52:49;23.34;79.01
68109;SHT30;54893;49.864;19.084;2023-07-13T15:57:51;28.67;65.87
68109;SHT30;54893;49.864;19.084;2023-07-13T16:02:52;26.70;72.13
68109;SHT30;54893;49.864;19.084;2023-07-13T16:07:54;26.62;70.53
68109;SHT30;54893;49.864;19.084;2023-07-13T16:12:57;24.69;74.11
68109;SHT30;54893;49.864;19.084;2023-07-13T16:17:57;24.89;74.17
68109;SHT30;54893;49.864;19.084;2023-07-13T16:22:58;27.18;68.14
68109;SHT30;54893;49.864;19.084;2023-07-13T16:28:03;26.00;71.21
68109;SHT30;54893;49.864;19.084;2023-07-13T16:33:06;23.96;74.68
68109;SHT30;54893;49.864;19.084;2023-07-13T16:38:16;23.64;75.70
68109;SHT30;54893;49.864;19.084;2023-07-13T16:43:18;24.11;74.89
68109;SHT30;54893;49.864;19.084;2023-07-13T16:48:24;23.08;77.22
68109;SHT30;54893;49.864;19.084;2023-07-13T16:53:29;22.61;77.22
68109;SHT30;54893;49.864;19.084;2023-07-13T16:58:31;22.51;77.39
68109;SHT30;54893;49.864;19.084;2023-07-13T17:03:32;21.98;78.62
68109;SHT30;54893;49.864;19.084;2023-07-13T17:08:33;21.91;78.26
68109;SHT30;54893;49.864;19.084;2023-07-13T17:13:33;26.31;68.99
68109;SHT30;54893;49.864;19.084;2023-07-13T17:18:33;24.48;73.78
68109;SHT30;54893;49.864;19.084;2023-07-13T17:23:36;23.40;76.36
68109;SHT30;54893;49.864;19.084;2023-07-13T17:28:38;26.26;70.18
68109;SHT30;54893;49.864;19.084;2023-07-13T17:33:39;27.71;65.48
68109;SHT30;54893;49.864;19.084;2023-07-13T17:38:45;28.23;65.40
68109;SHT30;54893;49.864;19.084;2023-07-13T17:43:50;28.03;65.60
68109;SHT30;54893;49.864;19.084;2023-07-13T17:48:51;27.24;67.98
68109;SHT30;54893;49.864;19.084;2023-07-13T17:53:51;24.64;73.98
68109;SHT30;54893;49.864;19.084;2023-07-13T17:58:52;22.96;76.68
68109;SHT30;54893;49.864;19.084;2023-07-13T18:03:54;21.83;78.72
68109;SHT30;54893;49.864;19.084;2023-07-13T18:08:59;21.19;79.31
68109;SHT30;54893;49.864;19.084;2023-07-13T18:13:59;20.76;79.72
68109;SHT30;54893;49.864;19.084;2023-07-13T18:19:01;21.14;78.79
68109;SHT30;54893;49.864;19.084;2023-07-13T18:24:02;21.29;78.84
68109;SHT30;54893;49.864;19.084;2023-07-13T18:29:04;20.56;80.77
68109;SHT30;54893;49.864;19.084;2023-07-13T18:34:05;20.24;81.48
68109;SHT30;54893;49.864;19.084;2023-07-13T18:39:13;19.95;81.86
68109;SHT30;54893;49.864;19.084;2023-07-13T18:44:14;19.74;81.90
68109;SHT30;54893;49.864;19.084;2023-07-13T18:49:14;19.46;82.51
68109;SHT30;54893;49.864;19.084;2023-07-13T18:54:15;19.10;85.77
68109;SHT30;54893;49.864;19.084;2023-07-13T18:59:15;18.82;85.46
68109;SHT30;54893;49.864;19.084;2023-07-13T19:04:25;18.56;87.84
68109;SHT30;54893;49.864;19.084;2023-07-13T19:09:26;18.19;89.97
68109;SHT30;54893;49.864;19.084;2023-07-13T19:14:28;18.00;90.91
68109;SHT30;54893;49.864;19.084;2023-07-13T19:19:28;17.85;90.05
68109;SHT30;54893;49.864;19.084;2023-07-13T19:24:29;17.73;91.48
68109;SHT30;54893;49.864;19.084;2023-07-13T19:29:31;17.57;91.64
68109;SHT30;54893;49.864;19.084;2023-07-13T19:34:36;17.41;92.43
68109;SHT30;54893;49.864;19.084;2023-07-13T19:39:38;17.24;91.48
68109;SHT30;54893;49.864;19.084;2023-07-13T19:44:39;17.20;93.75
68109;SHT30;54893;49.864;19.084;2023-07-13T19:49:42;17.06;92.87
68109;SHT30;54893;49.864;19.084;2023-07-13T19:54:48;17.06;93.58
68109;SHT30;54893;49.864;19.084;2023-07-13T19:59:53;17.16;88.41
68109;SHT30;54893;49.864;19.084;2023-07-13T20:04:57;17.20;89.14
68109;SHT30;54893;49.864;19.084;2023-07-13T20:09:57;17.19;89.81
68109;SHT30;54893;49.864;19.084;2023-07-13T20:14:58;17.12;89.95
68109;SHT30;54893;49.864;19.084;2023-07-13T20:20:00;16.97;91.48
68109;SHT30;54893;49.864;19.084;2023-07-13T20:25:01;16.96;94.23
68109;SHT30;54893;49.864;19.084;2023-07-13T20:30:09;16.80;94.59
68109;SHT30;54893;49.864;19.084;2023-07-13T20:35:31;16.73;94.39
68109;SHT30;54893;49.864;19.084;2023-07-13T20:40:35;16.63;95.03
68109;SHT30;54893;49.864;19.084;2023-07-13T20:45:36;16.47;95.64
68109;SHT30;54893;49.864;19.084;2023-07-13T20:50:37;16.33;95.76
68109;SHT30;54893;49.864;19.084;2023-07-13T20:55:37;16.28;95.01
68109;SHT30;54893;49.864;19.084;2023-07-13T21:00:40;16.39;95.80
68109;SHT30;54893;49.864;19.084;2023-07-13T21:05:42;16.33;94.42
68109;SHT30;54893;49.864;19.084;2023-07-13T21:10:42;16.38;91.99
68109;SHT30;54893;49.864;19.084;2023-07-13T21:15:45;16.45;91.06
68109;SHT30;54893;49.864;19.084;2023-07-13T21:20:54;16.35;93.52
68109;SHT30;54893;49.864;19.084;2023-07-13T21:25:56;16.22;94.13
68109;SHT30;54893;49.864;19.084;2023-07-13T21:31:02;16.08;94.74
68109;SHT30;54893;49.864;19.084;2023-07-13T21:36:03;15.84;96.21
68109;SHT30;54893;49.864;19.084;2023-07-13T21:41:27;15.71;96.60
68109;SHT30;54893;49.864;19.084;2023-07-13T21:46:29;15.51;97.27
68109;SHT30;54893;49.864;19.084;2023-07-13T21:51:29;15.46;97.61
68109;SHT30;54893;49.864;19.084;2023-07-13T21:56:30;15.30;97.92
68109;SHT30;54893;49.864;19.084;2023-07-13T22:01:31;15.27;98.03
68109;SHT30;54893;49.864;19.084;2023-07-13T22:06:36;15.24;98.07
68109;SHT30;54893;49.864;19.084;2023-07-13T22:11:37;15.22;98.45
68109;SHT30;54893;49.864;19.084;2023-07-13T22:16:37;15.16;98.04
68109;SHT30;54893;49.864;19.084;2023-07-13T22:21:38;15.14;96.86
68109;SHT30;54893;49.864;19.084;2023-07-13T22:26:39;15.16;97.18
68109;SHT30;54893;49.864;19.084;2023-07-13T22:31:39;15.11;97.27
68109;SHT30;54893;49.864;19.084;2023-07-13T22:36:41;15.07;97.65
68109;SHT30;54893;49.864;19.084;2023-07-13T22:41:42;14.99;98.37
68109;SHT30;54893;49.864;19.084;2023-07-13T22:46:42;14.93;98.55
68109;SHT30;54893;49.864;19.084;2023-07-13T22:51:42;14.86;98.32
68109;SHT30;54893;49.864;19.084;2023-07-13T22:56:43;14.82;98.26
68109;SHT30;54893;49.864;19.084;2023-07-13T23:01:43;14.82;98.92
68109;SHT30;54893;49.864;19.084;2023-07-13T23:06:44;14.86;96.52
68109;SHT30;54893;49.864;19.084;2023-07-13T23:11:45;15.02;95.30
68109;SHT30;54893;49.864;19.084;2023-07-13T23:16:46;15.02;96.27
68109;SHT30;54893;49.864;19.084;2023-07-13T23:21:50;15.04;95.63
68109;SHT30;54893;49.864;19.084;2023-07-13T23:26:51;14.97;96.62
68109;SHT30;54893;49.864;19.084;2023-07-13T23:31:51;14.77;96.87
68109;SHT30;54893;49.864;19.084;2023-07-13T23:36:52;14.68;97.42
68109;SHT30;54893;49.864;19.084;2023-07-13T23:41:52;14.56;97.45
68109;SHT30;54893;49.864;19.084;2023-07-13T23:46:53;14.46;97.63
68109;SHT30;54893;49.864;19.084;2023-07-13T23:51:57;14.43;98.10
68109;SHT30;54893;49.864;19.084;2023-07-13T23:56:58;14.53;95.72
